Holyoke, CO

11:14 AM MDT on September 04, 2015 (GMT -0600)
CODOT | | Change Station
CLOSE
Current Station
Personal Weather Station
Location: Holyoke, CO
Elevation: 3746 ft
Nearby Weather Stations

Elev 3746 ft 40.47 °N, 102.30 °W | Updated 4 hours ago

Clear
Clear
58.0 °F
Feels Like 58.0 °F
N
12.0
Wind Variable Wind from NW
Gusts 16.0 mph

Today
High -- | Low -- °F
--% Chance of Precip.
Yesterday
High -- | Low -- °F
Precip. -- in
6:19 AM 7:16 PM
Waning Gibbous, 58% visible
Pressure 29.93 in
Visibility 10.0 miles
Clouds Clear
Dew Point 55.0 °F
Humidity 87%
Rainfall in
Snow Depth Not available.
UV 8 out of 12
Pollen 10.80 out of 12
Air Quality Not available.
Flu Activity Not available.
METAR KHEQ 041655Z AUTO 21003KT 10SM CLR 29/12 A2993 RMK AO2 LTG DSNT W
Pressure 29.93 in
Visibility 10.0 miles
Clouds Clear
Dew Point 55.0 °F
Humidity 87%
Rainfall in
Snow Depth Not available.
UV 8 out of 12
Pollen 10.80 out of 12
Air Quality Not available.
Flu Activity Not available.
METAR KHEQ 041655Z AUTO 21003KT 10SM CLR 29/12 A2993 RMK AO2 LTG DSNT W

10-Day Weather Forecast

×

Almanac

Astronomy

Sep. 04, 2015 Rise Set
Actual Time
Civil Twilight
Nautical Twilight
Astronomical Twilight
Moon
Length of Visible Light
Length of Day
Tomorrow will be .
, % of the Moon is Illuminated

Today's Extremes

State Highs State Lows

Community

WunderPhotos

Upload Photos

1,852,231 photos uploaded!

WunderBlogs® & News

Nearby

Air Quality

  Air Quality AQ Index Pollutant
Not available.

Snow Depth

Station Depth Elevation

Earthquake Activity

City Distance Mag. Time & Date
Minimum magnitude displayed is 2.5.

Coastal Water Temperatures

Place Temperature

Stations

Nearby Weather Stations

Station Location Temp. Windchill Dew Point Humidity Wind Precip. Elev Updated Type